createdAt,value
2022-12-01T00:01:16.684Z,90.53
2022-12-01T00:07:18.638Z,81.77
2022-12-01T00:13:20.794Z,86.40
2022-12-01T00:19:27.724Z,83.63
2022-12-01T00:25:31.312Z,80.37
2022-12-01T00:31:33.363Z,79.80
2022-12-01T00:37:35.831Z,86.27
2022-12-01T00:43:37.923Z,67.60
2022-12-01T00:49:40.310Z,76.23
2022-12-01T00:55:42.244Z,77.07
2022-12-01T01:01:44.237Z,82.77
2022-12-01T01:07:46.971Z,74.87
2022-12-01T01:13:48.897Z,78.90
2022-12-01T01:19:54.668Z,72.00
2022-12-01T01:26:13.947Z,70.10
2022-12-01T01:32:15.847Z,64.40
2022-12-01T01:38:17.798Z,82.67
2022-12-01T01:44:48.305Z,62.70
2022-12-01T01:50:50.219Z,62.67
2022-12-01T01:56:53.244Z,68.00
2022-12-01T02:02:58.033Z,73.17
2022-12-01T02:09:00.019Z,63.03
2022-12-01T02:15:36.816Z,80.80
2022-12-01T02:22:20.258Z,70.43
2022-12-01T02:28:34.085Z,66.30
2022-12-01T02:34:55.160Z,56.37
2022-12-01T02:41:29.501Z,57.03
2022-12-01T02:47:36.819Z,58.70
2022-12-01T02:53:38.771Z,53.43
2022-12-01T02:59:52.709Z,48.30
2022-12-01T03:06:20.709Z,52.20
2022-12-01T03:13:07.578Z,49.13
2022-12-01T03:19:19.932Z,54.53
2022-12-01T03:25:24.901Z,55.60
2022-12-01T03:31:33.221Z,50.27
2022-12-01T03:37:49.568Z,58.20
2022-12-01T03:44:14.050Z,48.40
2022-12-01T03:50:19.483Z,50.40
2022-12-01T03:56:28.895Z,48.70
2022-12-01T04:02:35.207Z,46.53
2022-12-01T04:08:37.733Z,44.70
2022-12-01T04:14:42.228Z,41.80
2022-12-01T04:20:46.928Z,42.70
2022-12-01T04:26:48.925Z,36.50
2022-12-01T04:32:54.184Z,38.00
2022-12-01T04:38:59.551Z,39.63
2022-12-01T04:45:01.575Z,45.10
2022-12-01T04:51:08.694Z,42.73
2022-12-01T04:57:10.663Z,40.67
2022-12-01T05:03:15.176Z,44.10
2022-12-01T05:09:18.008Z,43.40
2022-12-01T05:15:19.994Z,38.47
2022-12-01T05:21:21.880Z,43.20
2022-12-01T05:27:23.764Z,46.53
2022-12-01T05:33:27.650Z,40.00
2022-12-01T05:39:29.946Z,46.50
2022-12-01T05:45:32.369Z,42.20
2022-12-01T05:51:34.388Z,45.23
2022-12-01T05:57:38.870Z,48.20
2022-12-01T06:03:40.757Z,47.97
2022-12-01T06:09:42.640Z,46.50
2022-12-01T06:16:00.863Z,45.70
2022-12-01T06:22:03.315Z,47.70
2022-12-01T06:28:13.262Z,45.40
2022-12-01T06:34:15.194Z,47.10
2022-12-01T06:40:33.127Z,45.33
2022-12-01T06:46:35.158Z,46.10
2022-12-01T06:52:37.481Z,52.60
2022-12-01T06:58:39.380Z,49.90
2022-12-01T07:04:41.456Z,48.37
2022-12-01T07:10:46.385Z,49.37
2022-12-01T07:16:48.348Z,56.17
2022-12-01T07:22:53.986Z,51.80
2022-12-01T07:28:58.876Z,59.30
2022-12-01T07:35:00.830Z,63.93
2022-12-01T07:41:17.927Z,57.97
2022-12-01T07:47:22.886Z,54.87
2022-12-01T07:53:24.926Z,56.73
2022-12-01T07:59:26.855Z,65.93
2022-12-01T08:05:28.822Z,59.70
2022-12-01T08:11:33.287Z,63.47
2022-12-01T08:17:38.206Z,54.80
2022-12-01T08:23:58.590Z,34.57
2022-12-01T08:30:00.913Z,36.97
2022-12-01T08:36:11.406Z,32.03
2022-12-01T08:42:16.202Z,26.43
2022-12-01T08:48:24.323Z,24.33
2022-12-01T08:54:26.271Z,29.80
2022-12-01T09:00:37.984Z,28.67
2022-12-01T09:06:43.281Z,27.83
2022-12-01T09:12:45.234Z,35.37
2022-12-01T09:18:47.985Z,31.03
2022-12-01T09:24:50.026Z,31.83
2022-12-01T09:30:52.065Z,27.70
2022-12-01T09:36:58.565Z,39.40
2022-12-01T09:43:21.819Z,35.30
2022-12-01T09:50:00.398Z,29.27
2022-12-01T09:56:07.316Z,27.80
2022-12-01T10:02:43.644Z,41.50
2022-12-01T10:09:26.906Z,29.80
2022-12-01T10:15:50.068Z,30.03
2022-12-01T10:22:07.669Z,28.53
2022-12-01T10:28:37.107Z,29.20
2022-12-01T10:34:42.478Z,28.43
2022-12-01T10:40:44.887Z,24.63
2022-12-01T10:46:56.061Z,25.40
2022-12-01T10:52:57.961Z,24.83
2022-12-01T10:59:18.670Z,23.93
2022-12-01T11:05:36.868Z,23.13
2022-12-01T11:11:40.569Z,24.73
2022-12-01T11:17:43.910Z,23.50
2022-12-01T11:23:55.623Z,21.83
2022-12-01T11:30:22.136Z,23.27
2022-12-01T11:36:47.842Z,24.77
2022-12-01T11:43:06.624Z,21.33
2022-12-01T11:49:22.632Z,20.40
2022-12-01T11:55:29.711Z,27.33
2022-12-01T12:01:49.068Z,29.67
2022-12-01T12:08:21.996Z,28.97
2022-12-01T12:14:43.452Z,36.80
2022-12-01T12:21:07.857Z,33.07
2022-12-01T12:28:03.433Z,30.23
2022-12-01T12:34:26.421Z,36.07
2022-12-01T12:40:55.758Z,35.07
2022-12-01T12:47:00.496Z,34.27
2022-12-01T12:53:13.951Z,37.80
2022-12-01T12:59:53.569Z,35.13
2022-12-01T13:06:26.030Z,47.27
2022-12-01T13:12:35.086Z,35.10
2022-12-01T13:18:51.502Z,39.03
2022-12-01T13:24:53.451Z,36.90
2022-12-01T13:31:31.197Z,38.87
2022-12-01T13:37:41.723Z,50.73
2022-12-01T13:44:22.410Z,45.80
2022-12-01T13:50:47.276Z,51.23
2022-12-01T13:57:07.099Z,49.80
2022-12-01T14:03:20.713Z,41.63
2022-12-01T14:09:36.840Z,44.17
2022-12-01T14:15:43.753Z,46.53
2022-12-01T14:21:50.138Z,45.50
2022-12-01T14:27:59.161Z,42.53
2022-12-01T14:34:19.361Z,43.23
2022-12-01T14:40:28.115Z,42.30
2022-12-01T14:46:45.000Z,50.33
2022-12-01T14:52:58.325Z,49.77
2022-12-01T14:59:14.265Z,38.07
2022-12-01T15:11:52.131Z,54.13
2022-12-01T15:17:57.599Z,51.30
2022-12-01T15:24:08.531Z,55.67
2022-12-01T15:30:19.883Z,58.43
2022-12-01T15:36:34.676Z,61.47
2022-12-01T15:42:39.259Z,62.57
2022-12-01T15:48:41.623Z,54.80
2022-12-01T15:54:52.293Z,55.10
2022-12-01T16:01:30.235Z,52.50
2022-12-01T16:08:11.418Z,50.27
2022-12-01T16:14:26.638Z,47.20
2022-12-01T16:20:44.196Z,56.47
2022-12-01T16:27:06.549Z,50.57
2022-12-01T16:33:22.562Z,49.87
2022-12-01T16:39:24.443Z,54.93
2022-12-01T16:45:26.791Z,52.13
2022-12-01T16:51:35.510Z,61.33
2022-12-01T16:57:44.350Z,58.70
2022-12-01T17:03:46.257Z,56.60
2022-12-01T17:09:51.169Z,48.27
2022-12-01T17:22:11.237Z,60.37
2022-12-01T17:28:19.439Z,58.30
2022-12-01T17:34:21.414Z,51.90
2022-12-01T17:40:23.718Z,53.87
2022-12-01T17:46:25.760Z,43.67
2022-12-01T17:52:29.287Z,52.20
2022-12-01T17:58:31.259Z,44.73
2022-12-01T18:04:34.719Z,47.03
2022-12-01T18:10:37.307Z,50.93
2022-12-01T18:16:39.382Z,53.87
2022-12-01T18:22:41.389Z,49.10
2022-12-01T18:28:44.182Z,45.90
2022-12-01T18:34:46.058Z,41.40
2022-12-01T18:40:47.973Z,50.43
2022-12-01T18:46:50.571Z,45.27
2022-12-01T18:52:52.504Z,43.40
2022-12-01T18:59:07.060Z,40.80
2022-12-01T19:05:09.597Z,48.50
2022-12-01T19:11:15.162Z,43.77
2022-12-01T19:17:20.510Z,40.67
2022-12-01T19:23:25.137Z,42.60
2022-12-01T19:29:27.037Z,40.33
2022-12-01T19:35:29.487Z,42.20
2022-12-01T19:41:35.413Z,39.20
2022-12-01T19:47:43.500Z,40.60
2022-12-01T19:53:45.636Z,39.60
2022-12-01T19:59:47.545Z,41.87
2022-12-01T20:05:50.391Z,42.27
2022-12-01T20:11:53.991Z,46.40
2022-12-01T20:17:55.900Z,35.50
2022-12-01T20:24:04.444Z,43.87
2022-12-01T20:30:07.410Z,41.83
2022-12-01T20:36:18.944Z,43.10
2022-12-01T20:42:22.316Z,50.67
2022-12-01T20:48:33.952Z,44.90
2022-12-01T20:54:39.349Z,47.10
2022-12-01T21:00:44.317Z,48.10
2022-12-01T21:06:57.028Z,44.87
2022-12-01T21:13:25.052Z,56.53
2022-12-01T21:19:45.398Z,48.20
2022-12-01T21:25:49.002Z,48.77
2022-12-01T21:32:00.174Z,45.93
2022-12-01T21:38:11.182Z,49.43
2022-12-01T21:44:20.179Z,47.37
2022-12-01T21:50:27.232Z,53.93
2022-12-01T21:56:41.678Z,43.90
2022-12-01T22:02:52.898Z,49.70
2022-12-01T22:09:26.388Z,44.00
2022-12-01T22:22:09.112Z,52.00
2022-12-01T22:28:25.609Z,47.17
2022-12-01T22:34:29.281Z,36.83
2022-12-01T22:40:50.516Z,37.17
2022-12-01T22:46:52.554Z,41.53
2022-12-01T22:53:01.476Z,40.70
2022-12-01T22:59:16.562Z,43.67
2022-12-01T23:05:28.937Z,35.00
2022-12-01T23:11:30.897Z,43.03
2022-12-01T23:17:35.672Z,41.30
2022-12-01T23:23:40.500Z,34.33
2022-12-01T23:29:42.689Z,32.27
2022-12-01T23:35:48.926Z,39.60
2022-12-01T23:41:51.589Z,35.80
2022-12-01T23:47:56.087Z,35.90
2022-12-01T23:54:01.438Z,40.10
